sensor_id;sensor_type;location;lat;lon;timestamp;P1;durP1;ratioP1;P2;durP2;ratioP2
33830;SDS011;20137;48.834;8.732;2023-05-07T00:01:30;3.55;;;2.33;;
33830;SDS011;20137;48.834;8.732;2023-05-07T00:03:56;7.32;;;2.80;;
33830;SDS011;20137;48.834;8.732;2023-05-07T00:06:22;5.82;;;2.40;;
33830;SDS011;20137;48.834;8.732;2023-05-07T00:08:47;8.85;;;2.83;;
33830;SDS011;20137;48.834;8.732;2023-05-07T00:11:13;4.82;;;2.42;;
33830;SDS011;20137;48.834;8.732;2023-05-07T00:13:39;6.88;;;2.60;;
33830;SDS011;20137;48.834;8.732;2023-05-07T00:16:05;4.97;;;2.88;;
33830;SDS011;20137;48.834;8.732;2023-05-07T00:18:31;3.88;;;2.50;;
33830;SDS011;20137;48.834;8.732;2023-05-07T00:20:56;4.35;;;2.22;;
33830;SDS011;20137;48.834;8.732;2023-05-07T00:23:22;5.88;;;2.33;;
33830;SDS011;20137;48.834;8.732;2023-05-07T00:25:48;4.95;;;2.50;;
33830;SDS011;20137;48.834;8.732;2023-05-07T00:28:14;5.00;;;2.58;;
33830;SDS011;20137;48.834;8.732;2023-05-07T00:30:40;4.00;;;2.38;;
33830;SDS011;20137;48.834;8.732;2023-05-07T00:33:05;4.95;;;2.58;;
33830;SDS011;20137;48.834;8.732;2023-05-07T00:35:31;7.13;;;2.75;;
33830;SDS011;20137;48.834;8.732;2023-05-07T00:37:57;4.45;;;2.55;;
33830;SDS011;20137;48.834;8.732;2023-05-07T00:40:23;4.57;;;2.63;;
33830;SDS011;20137;48.834;8.732;2023-05-07T00:42:48;3.97;;;2.55;;
33830;SDS011;20137;48.834;8.732;2023-05-07T00:45:15;7.22;;;2.78;;
33830;SDS011;20137;48.834;8.732;2023-05-07T00:47:41;4.97;;;2.60;;
33830;SDS011;20137;48.834;8.732;2023-05-07T00:50:08;4.65;;;2.72;;
33830;SDS011;20137;48.834;8.732;2023-05-07T00:52:36;5.78;;;3.20;;
33830;SDS011;20137;48.834;8.732;2023-05-07T00:55:04;4.22;;;2.83;;
33830;SDS011;20137;48.834;8.732;2023-05-07T00:57:32;6.35;;;2.95;;
33830;SDS011;20137;48.834;8.732;2023-05-07T01:00:03;3.33;;;2.60;;
33830;SDS011;20137;48.834;8.732;2023-05-07T01:02:29;3.90;;;2.30;;
33830;SDS011;20137;48.834;8.732;2023-05-07T01:04:55;4.75;;;2.67;;
33830;SDS011;20137;48.834;8.732;2023-05-07T01:07:22;3.40;;;2.67;;
33830;SDS011;20137;48.834;8.732;2023-05-07T01:09:48;4.60;;;2.55;;
33830;SDS011;20137;48.834;8.732;2023-05-07T01:12:15;3.28;;;2.50;;
33830;SDS011;20137;48.834;8.732;2023-05-07T01:14:41;4.63;;;2.40;;
33830;SDS011;20137;48.834;8.732;2023-05-07T01:17:07;4.47;;;2.72;;
33830;SDS011;20137;48.834;8.732;2023-05-07T01:19:33;4.50;;;2.28;;
33830;SDS011;20137;48.834;8.732;2023-05-07T01:22:03;4.95;;;2.88;;
33830;SDS011;20137;48.834;8.732;2023-05-07T01:24:32;3.65;;;2.40;;
33830;SDS011;20137;48.834;8.732;2023-05-07T01:26:59;5.40;;;3.13;;
33830;SDS011;20137;48.834;8.732;2023-05-07T01:29:26;2.95;;;2.50;;
33830;SDS011;20137;48.834;8.732;2023-05-07T01:31:52;4.03;;;2.60;;
33830;SDS011;20137;48.834;8.732;2023-05-07T01:34:18;5.95;;;3.40;;
33830;SDS011;20137;48.834;8.732;2023-05-07T01:36:46;5.43;;;3.20;;
33830;SDS011;20137;48.834;8.732;2023-05-07T01:39:13;4.60;;;2.63;;
33830;SDS011;20137;48.834;8.732;2023-05-07T01:41:40;4.05;;;2.65;;
33830;SDS011;20137;48.834;8.732;2023-05-07T01:44:07;4.05;;;2.70;;
33830;SDS011;20137;48.834;8.732;2023-05-07T01:46:33;4.90;;;3.17;;
33830;SDS011;20137;48.834;8.732;2023-05-07T01:49:00;3.65;;;2.63;;
33830;SDS011;20137;48.834;8.732;2023-05-07T01:51:26;4.03;;;2.72;;
33830;SDS011;20137;48.834;8.732;2023-05-07T01:53:52;3.92;;;2.80;;
33830;SDS011;20137;48.834;8.732;2023-05-07T01:56:18;5.90;;;2.75;;
33830;SDS011;20137;48.834;8.732;2023-05-07T01:58:45;10.68;;;2.80;;
33830;SDS011;20137;48.834;8.732;2023-05-07T02:01:13;4.93;;;2.80;;
33830;SDS011;20137;48.834;8.732;2023-05-07T02:03:39;4.70;;;3.00;;
33830;SDS011;20137;48.834;8.732;2023-05-07T02:06:05;4.90;;;2.67;;
33830;SDS011;20137;48.834;8.732;2023-05-07T02:08:31;3.47;;;2.92;;
33830;SDS011;20137;48.834;8.732;2023-05-07T02:10:56;5.60;;;2.83;;
33830;SDS011;20137;48.834;8.732;2023-05-07T02:13:22;5.80;;;3.33;;
33830;SDS011;20137;48.834;8.732;2023-05-07T02:15:49;4.68;;;2.92;;
33830;SDS011;20137;48.834;8.732;2023-05-07T02:18:15;5.28;;;3.13;;
33830;SDS011;20137;48.834;8.732;2023-05-07T02:20:42;8.88;;;3.22;;
33830;SDS011;20137;48.834;8.732;2023-05-07T02:23:08;7.03;;;2.92;;
33830;SDS011;20137;48.834;8.732;2023-05-07T02:25:34;5.00;;;3.30;;
33830;SDS011;20137;48.834;8.732;2023-05-07T02:27:59;5.15;;;3.33;;
33830;SDS011;20137;48.834;8.732;2023-05-07T02:30:25;4.82;;;2.90;;
33830;SDS011;20137;48.834;8.732;2023-05-07T02:32:51;5.15;;;3.28;;
33830;SDS011;20137;48.834;8.732;2023-05-07T02:35:17;6.10;;;3.25;;
33830;SDS011;20137;48.834;8.732;2023-05-07T02:37:42;3.42;;;3.00;;
33830;SDS011;20137;48.834;8.732;2023-05-07T02:40:08;4.75;;;2.88;;
33830;SDS011;20137;48.834;8.732;2023-05-07T02:42:34;3.65;;;3.13;;
33830;SDS011;20137;48.834;8.732;2023-05-07T02:45:00;3.72;;;2.90;;
33830;SDS011;20137;48.834;8.732;2023-05-07T02:47:26;5.75;;;3.50;;
33830;SDS011;20137;48.834;8.732;2023-05-07T02:49:53;6.65;;;3.40;;
33830;SDS011;20137;48.834;8.732;2023-05-07T02:52:20;4.95;;;3.38;;
33830;SDS011;20137;48.834;8.732;2023-05-07T02:54:46;7.00;;;3.58;;
33830;SDS011;20137;48.834;8.732;2023-05-07T02:57:11;5.13;;;2.90;;
33830;SDS011;20137;48.834;8.732;2023-05-07T02:59:37;6.35;;;3.75;;
33830;SDS011;20137;48.834;8.732;2023-05-07T03:02:04;4.72;;;3.40;;
33830;SDS011;20137;48.834;8.732;2023-05-07T03:04:30;6.70;;;3.13;;
33830;SDS011;20137;48.834;8.732;2023-05-07T03:06:56;5.93;;;3.10;;
33830;SDS011;20137;48.834;8.732;2023-05-07T03:09:22;6.63;;;3.15;;
33830;SDS011;20137;48.834;8.732;2023-05-07T03:11:48;5.45;;;3.72;;
33830;SDS011;20137;48.834;8.732;2023-05-07T03:14:14;4.53;;;3.28;;
33830;SDS011;20137;48.834;8.732;2023-05-07T03:16:40;5.80;;;3.40;;
33830;SDS011;20137;48.834;8.732;2023-05-07T03:19:06;4.15;;;3.15;;
33830;SDS011;20137;48.834;8.732;2023-05-07T03:21:32;4.18;;;3.00;;
33830;SDS011;20137;48.834;8.732;2023-05-07T03:23:59;4.25;;;2.92;;
33830;SDS011;20137;48.834;8.732;2023-05-07T03:26:25;5.82;;;3.08;;
33830;SDS011;20137;48.834;8.732;2023-05-07T03:28:51;5.65;;;2.95;;
33830;SDS011;20137;48.834;8.732;2023-05-07T03:31:17;5.45;;;3.03;;
33830;SDS011;20137;48.834;8.732;2023-05-07T03:33:53;3.60;;;3.15;;
33830;SDS011;20137;48.834;8.732;2023-05-07T03:36:20;5.43;;;3.40;;
33830;SDS011;20137;48.834;8.732;2023-05-07T03:38:46;4.85;;;3.00;;
33830;SDS011;20137;48.834;8.732;2023-05-07T03:41:12;8.13;;;3.50;;
33830;SDS011;20137;48.834;8.732;2023-05-07T03:43:38;6.05;;;3.45;;
33830;SDS011;20137;48.834;8.732;2023-05-07T03:46:04;6.95;;;3.60;;
33830;SDS011;20137;48.834;8.732;2023-05-07T03:48:30;4.65;;;3.25;;
33830;SDS011;20137;48.834;8.732;2023-05-07T03:50:59;7.22;;;3.30;;
33830;SDS011;20137;48.834;8.732;2023-05-07T03:53:25;4.15;;;3.00;;
33830;SDS011;20137;48.834;8.732;2023-05-07T03:55:51;7.78;;;3.38;;
33830;SDS011;20137;48.834;8.732;2023-05-07T03:58:17;4.50;;;2.65;;
33830;SDS011;20137;48.834;8.732;2023-05-07T04:00:44;4.45;;;2.50;;
33830;SDS011;20137;48.834;8.732;2023-05-07T04:03:10;5.78;;;2.92;;
33830;SDS011;20137;48.834;8.732;2023-05-07T04:05:36;6.05;;;3.13;;
33830;SDS011;20137;48.834;8.732;2023-05-07T04:08:02;4.93;;;2.97;;
33830;SDS011;20137;48.834;8.732;2023-05-07T04:10:29;7.30;;;3.10;;
33830;SDS011;20137;48.834;8.732;2023-05-07T04:12:55;7.15;;;2.70;;
33830;SDS011;20137;48.834;8.732;2023-05-07T04:15:22;4.03;;;2.95;;
33830;SDS011;20137;48.834;8.732;2023-05-07T04:17:48;4.57;;;2.83;;
33830;SDS011;20137;48.834;8.732;2023-05-07T04:20:15;4.65;;;3.00;;
33830;SDS011;20137;48.834;8.732;2023-05-07T04:22:41;3.67;;;2.85;;
33830;SDS011;20137;48.834;8.732;2023-05-07T04:25:08;7.07;;;3.15;;
33830;SDS011;20137;48.834;8.732;2023-05-07T04:27:34;4.25;;;3.00;;
33830;SDS011;20137;48.834;8.732;2023-05-07T04:30:00;4.10;;;2.83;;
33830;SDS011;20137;48.834;8.732;2023-05-07T04:32:27;4.65;;;2.85;;
33830;SDS011;20137;48.834;8.732;2023-05-07T04:34:54;4.70;;;2.60;;
33830;SDS011;20137;48.834;8.732;2023-05-07T04:37:20;3.60;;;2.20;;
33830;SDS011;20137;48.834;8.732;2023-05-07T04:39:46;4.53;;;2.72;;
33830;SDS011;20137;48.834;8.732;2023-05-07T04:42:15;5.63;;;2.83;;
33830;SDS011;20137;48.834;8.732;2023-05-07T04:44:42;6.07;;;2.70;;
33830;SDS011;20137;48.834;8.732;2023-05-07T04:47:08;3.72;;;2.50;;
33830;SDS011;20137;48.834;8.732;2023-05-07T04:49:34;3.70;;;2.63;;
33830;SDS011;20137;48.834;8.732;2023-05-07T04:52:00;3.90;;;2.42;;
33830;SDS011;20137;48.834;8.732;2023-05-07T04:54:26;3.97;;;2.55;;
33830;SDS011;20137;48.834;8.732;2023-05-07T04:56:52;6.47;;;2.83;;
33830;SDS011;20137;48.834;8.732;2023-05-07T04:59:18;5.78;;;2.83;;
33830;SDS011;20137;48.834;8.732;2023-05-07T05:01:44;6.40;;;2.60;;
33830;SDS011;20137;48.834;8.732;2023-05-07T05:04:10;4.53;;;2.72;;
33830;SDS011;20137;48.834;8.732;2023-05-07T05:06:36;3.75;;;2.47;;
33830;SDS011;20137;48.834;8.732;2023-05-07T05:09:02;5.82;;;2.10;;
33830;SDS011;20137;48.834;8.732;2023-05-07T05:11:29;4.70;;;2.50;;
33830;SDS011;20137;48.834;8.732;2023-05-07T05:13:56;6.00;;;2.22;;
33830;SDS011;20137;48.834;8.732;2023-05-07T05:16:22;4.35;;;2.60;;
33830;SDS011;20137;48.834;8.732;2023-05-07T05:18:48;5.28;;;2.30;;
33830;SDS011;20137;48.834;8.732;2023-05-07T05:21:14;3.72;;;2.42;;
33830;SDS011;20137;48.834;8.732;2023-05-07T05:23:40;2.90;;;2.08;;
33830;SDS011;20137;48.834;8.732;2023-05-07T05:26:06;3.60;;;1.83;;
33830;SDS011;20137;48.834;8.732;2023-05-07T05:28:32;4.25;;;1.90;;
33830;SDS011;20137;48.834;8.732;2023-05-07T05:30:58;2.55;;;1.60;;
33830;SDS011;20137;48.834;8.732;2023-05-07T05:33:24;2.03;;;1.40;;
33830;SDS011;20137;48.834;8.732;2023-05-07T05:35:50;3.47;;;1.83;;
33830;SDS011;20137;48.834;8.732;2023-05-07T05:38:16;2.63;;;1.95;;
33830;SDS011;20137;48.834;8.732;2023-05-07T05:40:42;5.63;;;1.88;;
33830;SDS011;20137;48.834;8.732;2023-05-07T05:43:08;2.17;;;1.70;;
33830;SDS011;20137;48.834;8.732;2023-05-07T05:45:34;4.07;;;1.88;;
33830;SDS011;20137;48.834;8.732;2023-05-07T05:48:00;3.33;;;2.08;;
33830;SDS011;20137;48.834;8.732;2023-05-07T05:50:26;2.67;;;2.00;;
33830;SDS011;20137;48.834;8.732;2023-05-07T05:52:52;4.50;;;2.00;;
33830;SDS011;20137;48.834;8.732;2023-05-07T05:55:18;3.88;;;2.20;;
33830;SDS011;20137;48.834;8.732;2023-05-07T05:57:44;6.57;;;2.40;;
33830;SDS011;20137;48.834;8.732;2023-05-07T06:00:11;3.97;;;2.00;;
33830;SDS011;20137;48.834;8.732;2023-05-07T06:02:37;4.13;;;1.98;;
33830;SDS011;20137;48.834;8.732;2023-05-07T06:05:03;3.67;;;2.58;;
33830;SDS011;20137;48.834;8.732;2023-05-07T06:07:29;3.50;;;2.10;;
33830;SDS011;20137;48.834;8.732;2023-05-07T06:09:55;5.65;;;2.05;;
33830;SDS011;20137;48.834;8.732;2023-05-07T06:12:21;8.50;;;2.03;;
33830;SDS011;20137;48.834;8.732;2023-05-07T06:14:47;4.43;;;2.10;;
33830;SDS011;20137;48.834;8.732;2023-05-07T06:17:13;5.50;;;2.15;;
33830;SDS011;20137;48.834;8.732;2023-05-07T06:19:39;5.15;;;2.42;;
33830;SDS011;20137;48.834;8.732;2023-05-07T06:22:05;3.03;;;2.10;;
33830;SDS011;20137;48.834;8.732;2023-05-07T06:24:31;2.92;;;2.33;;
33830;SDS011;20137;48.834;8.732;2023-05-07T06:26:57;3.97;;;2.53;;
33830;SDS011;20137;48.834;8.732;2023-05-07T06:29:24;4.50;;;2.33;;
33830;SDS011;20137;48.834;8.732;2023-05-07T06:31:51;5.75;;;2.50;;
33830;SDS011;20137;48.834;8.732;2023-05-07T06:34:17;4.28;;;2.40;;
33830;SDS011;20137;48.834;8.732;2023-05-07T06:36:43;5.32;;;2.38;;
33830;SDS011;20137;48.834;8.732;2023-05-07T06:39:09;3.63;;;2.70;;
33830;SDS011;20137;48.834;8.732;2023-05-07T06:41:35;10.48;;;2.40;;
33830;SDS011;20137;48.834;8.732;2023-05-07T06:44:02;4.28;;;2.63;;
33830;SDS011;20137;48.834;8.732;2023-05-07T06:46:28;6.10;;;2.70;;
33830;SDS011;20137;48.834;8.732;2023-05-07T06:48:54;4.50;;;1.90;;
33830;SDS011;20137;48.834;8.732;2023-05-07T06:51:21;8.93;;;2.80;;
33830;SDS011;20137;48.834;8.732;2023-05-07T06:53:47;3.70;;;2.35;;
33830;SDS011;20137;48.834;8.732;2023-05-07T06:56:13;4.85;;;2.42;;
33830;SDS011;20137;48.834;8.732;2023-05-07T06:58:40;4.28;;;2.15;;
33830;SDS011;20137;48.834;8.732;2023-05-07T07:01:06;3.67;;;2.13;;
33830;SDS011;20137;48.834;8.732;2023-05-07T07:03:32;5.30;;;2.45;;
33830;SDS011;20137;48.834;8.732;2023-05-07T07:05:58;3.97;;;2.78;;
33830;SDS011;20137;48.834;8.732;2023-05-07T07:08:24;6.75;;;3.03;;
33830;SDS011;20137;48.834;8.732;2023-05-07T07:10:50;3.38;;;2.35;;
33830;SDS011;20137;48.834;8.732;2023-05-07T07:13:16;3.20;;;2.20;;
33830;SDS011;20137;48.834;8.732;2023-05-07T07:15:43;3.13;;;2.60;;
33830;SDS011;20137;48.834;8.732;2023-05-07T07:18:09;7.00;;;2.58;;
33830;SDS011;20137;48.834;8.732;2023-05-07T07:20:36;5.60;;;2.70;;
33830;SDS011;20137;48.834;8.732;2023-05-07T07:23:02;4.75;;;2.50;;
33830;SDS011;20137;48.834;8.732;2023-05-07T07:25:28;4.43;;;2.38;;
33830;SDS011;20137;48.834;8.732;2023-05-07T07:27:54;8.13;;;3.05;;
33830;SDS011;20137;48.834;8.732;2023-05-07T07:30:20;3.40;;;2.60;;
33830;SDS011;20137;48.834;8.732;2023-05-07T07:32:46;4.57;;;2.85;;
33830;SDS011;20137;48.834;8.732;2023-05-07T07:35:12;9.68;;;2.63;;
33830;SDS011;20137;48.834;8.732;2023-05-07T07:37:38;4.00;;;2.38;;
33830;SDS011;20137;48.834;8.732;2023-05-07T07:40:04;4.50;;;2.70;;
33830;SDS011;20137;48.834;8.732;2023-05-07T07:42:30;4.65;;;2.55;;
33830;SDS011;20137;48.834;8.732;2023-05-07T07:44:56;4.03;;;2.90;;
33830;SDS011;20137;48.834;8.732;2023-05-07T07:47:22;5.60;;;2.65;;
33830;SDS011;20137;48.834;8.732;2023-05-07T07:49:48;6.30;;;2.80;;
33830;SDS011;20137;48.834;8.732;2023-05-07T07:52:14;3.67;;;2.90;;
33830;SDS011;20137;48.834;8.732;2023-05-07T07:54:40;8.68;;;2.92;;
33830;SDS011;20137;48.834;8.732;2023-05-07T07:57:06;5.05;;;3.22;;
33830;SDS011;20137;48.834;8.732;2023-05-07T07:59:32;4.32;;;3.00;;
33830;SDS011;20137;48.834;8.732;2023-05-07T08:01:58;4.15;;;2.70;;
33830;SDS011;20137;48.834;8.732;2023-05-07T08:04:24;4.85;;;2.67;;
33830;SDS011;20137;48.834;8.732;2023-05-07T08:06:50;3.28;;;2.40;;
33830;SDS011;20137;48.834;8.732;2023-05-07T08:09:16;6.20;;;2.55;;
33830;SDS011;20137;48.834;8.732;2023-05-07T08:11:42;3.90;;;2.65;;
33830;SDS011;20137;48.834;8.732;2023-05-07T08:14:08;5.13;;;3.10;;
33830;SDS011;20137;48.834;8.732;2023-05-07T08:16:35;4.00;;;2.45;;
33830;SDS011;20137;48.834;8.732;2023-05-07T08:19:01;5.85;;;2.60;;
33830;SDS011;20137;48.834;8.732;2023-05-07T08:21:27;3.60;;;2.13;;
33830;SDS011;20137;48.834;8.732;2023-05-07T08:23:53;3.25;;;2.00;;
33830;SDS011;20137;48.834;8.732;2023-05-07T08:26:19;4.97;;;2.60;;
33830;SDS011;20137;48.834;8.732;2023-05-07T08:28:45;5.25;;;2.47;;
33830;SDS011;20137;48.834;8.732;2023-05-07T08:31:11;7.55;;;2.28;;
33830;SDS011;20137;48.834;8.732;2023-05-07T08:33:37;4.25;;;2.33;;
33830;SDS011;20137;48.834;8.732;2023-05-07T08:36:03;4.97;;;2.00;;
33830;SDS011;20137;48.834;8.732;2023-05-07T08:38:29;6.50;;;2.28;;
33830;SDS011;20137;48.834;8.732;2023-05-07T08:40:55;8.85;;;2.63;;
33830;SDS011;20137;48.834;8.732;2023-05-07T08:43:22;3.58;;;2.15;;
33830;SDS011;20137;48.834;8.732;2023-05-07T08:45:50;7.22;;;2.30;;
33830;SDS011;20137;48.834;8.732;2023-05-07T08:48:21;6.38;;;2.65;;
33830;SDS011;20137;48.834;8.732;2023-05-07T08:50:47;2.65;;;2.30;;
33830;SDS011;20137;48.834;8.732;2023-05-07T08:53:13;4.68;;;2.58;;
33830;SDS011;20137;48.834;8.732;2023-05-07T08:55:41;3.88;;;2.30;;
33830;SDS011;20137;48.834;8.732;2023-05-07T08:58:08;3.20;;;2.30;;
33830;SDS011;20137;48.834;8.732;2023-05-07T09:00:35;4.32;;;2.58;;
33830;SDS011;20137;48.834;8.732;2023-05-07T09:03:01;4.72;;;2.38;;
33830;SDS011;20137;48.834;8.732;2023-05-07T09:05:28;6.13;;;2.47;;
33830;SDS011;20137;48.834;8.732;2023-05-07T09:07:54;6.85;;;2.50;;
33830;SDS011;20137;48.834;8.732;2023-05-07T09:10:20;5.75;;;2.60;;
33830;SDS011;20137;48.834;8.732;2023-05-07T09:12:47;3.63;;;2.60;;
33830;SDS011;20137;48.834;8.732;2023-05-07T09:23:06;5.10;;;2.60;;
33830;SDS011;20137;48.834;8.732;2023-05-07T09:25:32;5.88;;;2.40;;
33830;SDS011;20137;48.834;8.732;2023-05-07T09:28:02;3.78;;;2.08;;
33830;SDS011;20137;48.834;8.732;2023-05-07T09:30:29;5.50;;;2.67;;
33830;SDS011;20137;48.834;8.732;2023-05-07T09:32:55;4.40;;;2.50;;
33830;SDS011;20137;48.834;8.732;2023-05-07T09:35:22;3.95;;;2.60;;
33830;SDS011;20137;48.834;8.732;2023-05-07T09:37:52;4.80;;;2.65;;
33830;SDS011;20137;48.834;8.732;2023-05-07T09:40:28;3.67;;;2.50;;
33830;SDS011;20137;48.834;8.732;2023-05-07T09:42:54;9.18;;;3.10;;
33830;SDS011;20137;48.834;8.732;2023-05-07T09:45:27;5.07;;;2.28;;
33830;SDS011;20137;48.834;8.732;2023-05-07T09:47:56;4.47;;;2.72;;
33830;SDS011;20137;48.834;8.732;2023-05-07T09:50:27;4.05;;;2.60;;
33830;SDS011;20137;48.834;8.732;2023-05-07T09:52:56;4.40;;;3.17;;
33830;SDS011;20137;48.834;8.732;2023-05-07T09:55:22;3.90;;;2.47;;
33830;SDS011;20137;48.834;8.732;2023-05-07T09:57:52;5.22;;;2.72;;
33830;SDS011;20137;48.834;8.732;2023-05-07T10:00:19;7.30;;;3.70;;
33830;SDS011;20137;48.834;8.732;2023-05-07T10:02:49;3.50;;;2.45;;
33830;SDS011;20137;48.834;8.732;2023-05-07T10:05:16;2.58;;;2.38;;
33830;SDS011;20137;48.834;8.732;2023-05-07T10:07:43;3.65;;;2.30;;
33830;SDS011;20137;48.834;8.732;2023-05-07T10:10:10;4.18;;;2.17;;
33830;SDS011;20137;48.834;8.732;2023-05-07T10:12:36;5.53;;;2.40;;
33830;SDS011;20137;48.834;8.732;2023-05-07T10:15:10;5.05;;;2.58;;
33830;SDS011;20137;48.834;8.732;2023-05-07T10:17:39;4.38;;;2.22;;
33830;SDS011;20137;48.834;8.732;2023-05-07T10:20:06;3.13;;;2.40;;
33830;SDS011;20137;48.834;8.732;2023-05-07T10:22:33;3.63;;;2.90;;
33830;SDS011;20137;48.834;8.732;2023-05-07T10:25:03;7.03;;;2.90;;
33830;SDS011;20137;48.834;8.732;2023-05-07T10:27:31;6.45;;;3.13;;
33830;SDS011;20137;48.834;8.732;2023-05-07T10:30:07;5.28;;;3.20;;
33830;SDS011;20137;48.834;8.732;2023-05-07T10:32:39;5.45;;;3.50;;
33830;SDS011;20137;48.834;8.732;2023-05-07T10:35:10;8.32;;;3.40;;
33830;SDS011;20137;48.834;8.732;2023-05-07T10:37:38;9.95;;;3.88;;
33830;SDS011;20137;48.834;8.732;2023-05-07T10:40:05;5.55;;;3.70;;
33830;SDS011;20137;48.834;8.732;2023-05-07T10:42:32;5.47;;;3.47;;
33830;SDS011;20137;48.834;8.732;2023-05-07T10:44:58;6.72;;;3.90;;
33830;SDS011;20137;48.834;8.732;2023-05-07T10:47:45;5.65;;;3.63;;
33830;SDS011;20137;48.834;8.732;2023-05-07T10:57:46;7.68;;;4.10;;
33830;SDS011;20137;48.834;8.732;2023-05-07T11:05:26;5.15;;;4.15;;
33830;SDS011;20137;48.834;8.732;2023-05-07T11:07:55;5.30;;;3.58;;
33830;SDS011;20137;48.834;8.732;2023-05-07T11:10:22;5.82;;;3.17;;
33830;SDS011;20137;48.834;8.732;2023-05-07T11:12:49;4.93;;;4.00;;
33830;SDS011;20137;48.834;8.732;2023-05-07T11:15:15;5.90;;;3.42;;
33830;SDS011;20137;48.834;8.732;2023-05-07T11:17:59;4.93;;;3.10;;
33830;SDS011;20137;48.834;8.732;2023-05-07T11:26:00;5.30;;;3.38;;
33830;SDS011;20137;48.834;8.732;2023-05-07T11:28:36;4.00;;;3.15;;
33830;SDS011;20137;48.834;8.732;2023-05-07T11:31:02;6.32;;;3.30;;
33830;SDS011;20137;48.834;8.732;2023-05-07T11:33:32;9.25;;;4.97;;
33830;SDS011;20137;48.834;8.732;2023-05-07T11:35:59;7.20;;;3.72;;
33830;SDS011;20137;48.834;8.732;2023-05-07T11:38:25;6.22;;;2.85;;
33830;SDS011;20137;48.834;8.732;2023-05-07T11:40:52;6.03;;;3.40;;
33830;SDS011;20137;48.834;8.732;2023-05-07T11:43:19;5.65;;;3.03;;
33830;SDS011;20137;48.834;8.732;2023-05-07T11:45:45;5.15;;;3.28;;
33830;SDS011;20137;48.834;8.732;2023-05-07T11:48:12;7.85;;;3.40;;
33830;SDS011;20137;48.834;8.732;2023-05-07T11:53:17;5.60;;;4.20;;
33830;SDS011;20137;48.834;8.732;2023-05-07T11:55:43;8.02;;;4.55;;
33830;SDS011;20137;48.834;8.732;2023-05-07T11:58:10;5.28;;;3.78;;
33830;SDS011;20137;48.834;8.732;2023-05-07T12:00:36;7.22;;;4.10;;
33830;SDS011;20137;48.834;8.732;2023-05-07T12:03:03;5.10;;;3.17;;
33830;SDS011;20137;48.834;8.732;2023-05-07T12:05:30;4.65;;;3.15;;
33830;SDS011;20137;48.834;8.732;2023-05-07T12:07:59;4.55;;;3.33;;
33830;SDS011;20137;48.834;8.732;2023-05-07T12:10:25;8.90;;;3.60;;
33830;SDS011;20137;48.834;8.732;2023-05-07T12:12:51;4.70;;;2.10;;
33830;SDS011;20137;48.834;8.732;2023-05-07T12:15:17;2.28;;;1.70;;
33830;SDS011;20137;48.834;8.732;2023-05-07T12:17:43;3.90;;;2.15;;
33830;SDS011;20137;48.834;8.732;2023-05-07T12:20:09;3.08;;;1.30;;
33830;SDS011;20137;48.834;8.732;2023-05-07T12:22:36;3.22;;;1.42;;
33830;SDS011;20137;48.834;8.732;2023-05-07T12:25:02;1.45;;;1.15;;
33830;SDS011;20137;48.834;8.732;2023-05-07T12:27:28;2.80;;;1.25;;
33830;SDS011;20137;48.834;8.732;2023-05-07T12:29:56;1.40;;;1.10;;
33830;SDS011;20137;48.834;8.732;2023-05-07T12:32:23;2.15;;;0.90;;
33830;SDS011;20137;48.834;8.732;2023-05-07T12:34:50;1.73;;;1.00;;
33830;SDS011;20137;48.834;8.732;2023-05-07T12:37:16;2.25;;;1.23;;
33830;SDS011;20137;48.834;8.732;2023-05-07T12:39:49;3.47;;;1.58;;
33830;SDS011;20137;48.834;8.732;2023-05-07T12:42:15;4.22;;;1.80;;
33830;SDS011;20137;48.834;8.732;2023-05-07T12:44:44;2.90;;;1.70;;
33830;SDS011;20137;48.834;8.732;2023-05-07T12:47:10;6.35;;;2.30;;
33830;SDS011;20137;48.834;8.732;2023-05-07T12:49:37;4.88;;;2.63;;
33830;SDS011;20137;48.834;8.732;2023-05-07T12:52:05;2.78;;;2.17;;
33830;SDS011;20137;48.834;8.732;2023-05-07T12:54:31;5.03;;;2.05;;
33830;SDS011;20137;48.834;8.732;2023-05-07T12:57:04;4.10;;;2.08;;
33830;SDS011;20137;48.834;8.732;2023-05-07T12:59:31;6.95;;;2.38;;
33830;SDS011;20137;48.834;8.732;2023-05-07T13:01:57;4.28;;;1.80;;
33830;SDS011;20137;48.834;8.732;2023-05-07T13:04:24;2.13;;;1.48;;
33830;SDS011;20137;48.834;8.732;2023-05-07T13:06:51;4.50;;;2.10;;
33830;SDS011;20137;48.834;8.732;2023-05-07T13:09:17;5.93;;;2.08;;
33830;SDS011;20137;48.834;8.732;2023-05-07T13:11:43;4.68;;;1.85;;
33830;SDS011;20137;48.834;8.732;2023-05-07T13:14:09;3.65;;;1.90;;
33830;SDS011;20137;48.834;8.732;2023-05-07T13:16:35;5.25;;;2.22;;
33830;SDS011;20137;48.834;8.732;2023-05-07T13:19:01;2.55;;;2.08;;
33830;SDS011;20137;48.834;8.732;2023-05-07T13:21:27;4.40;;;2.15;;
33830;SDS011;20137;48.834;8.732;2023-05-07T13:23:53;6.63;;;2.42;;
33830;SDS011;20137;48.834;8.732;2023-05-07T13:26:19;3.45;;;2.53;;
33830;SDS011;20137;48.834;8.732;2023-05-07T13:28:45;4.45;;;2.28;;
33830;SDS011;20137;48.834;8.732;2023-05-07T13:31:11;6.95;;;2.63;;
33830;SDS011;20137;48.834;8.732;2023-05-07T13:33:37;3.25;;;2.20;;
33830;SDS011;20137;48.834;8.732;2023-05-07T13:36:03;4.72;;;2.40;;
33830;SDS011;20137;48.834;8.732;2023-05-07T13:38:31;5.90;;;2.65;;
33830;SDS011;20137;48.834;8.732;2023-05-07T13:40:57;6.13;;;2.40;;
33830;SDS011;20137;48.834;8.732;2023-05-07T13:43:24;4.57;;;2.60;;
33830;SDS011;20137;48.834;8.732;2023-05-07T13:45:50;5.03;;;2.80;;
33830;SDS011;20137;48.834;8.732;2023-05-07T13:48:16;8.52;;;3.08;;
33830;SDS011;20137;48.834;8.732;2023-05-07T13:50:42;4.82;;;2.70;;
33830;SDS011;20137;48.834;8.732;2023-05-07T13:53:08;6.10;;;2.45;;
33830;SDS011;20137;48.834;8.732;2023-05-07T13:55:34;6.60;;;2.25;;
33830;SDS011;20137;48.834;8.732;2023-05-07T13:58:01;7.38;;;2.40;;
33830;SDS011;20137;48.834;8.732;2023-05-07T14:00:28;3.35;;;2.35;;
33830;SDS011;20137;48.834;8.732;2023-05-07T14:02:55;4.97;;;2.67;;
33830;SDS011;20137;48.834;8.732;2023-05-07T14:05:21;4.38;;;1.98;;
33830;SDS011;20137;48.834;8.732;2023-05-07T14:07:52;5.85;;;2.58;;
33830;SDS011;20137;48.834;8.732;2023-05-07T14:10:19;4.18;;;2.30;;
33830;SDS011;20137;48.834;8.732;2023-05-07T14:12:45;4.15;;;2.35;;
33830;SDS011;20137;48.834;8.732;2023-05-07T14:15:12;4.05;;;1.80;;
33830;SDS011;20137;48.834;8.732;2023-05-07T14:17:38;6.60;;;2.55;;
33830;SDS011;20137;48.834;8.732;2023-05-07T14:20:04;3.15;;;1.95;;
33830;SDS011;20137;48.834;8.732;2023-05-07T14:22:33;5.50;;;2.10;;
33830;SDS011;20137;48.834;8.732;2023-05-07T14:24:59;3.75;;;1.60;;
33830;SDS011;20137;48.834;8.732;2023-05-07T14:27:26;5.80;;;2.47;;
33830;SDS011;20137;48.834;8.732;2023-05-07T14:29:52;3.58;;;2.00;;
33830;SDS011;20137;48.834;8.732;2023-05-07T14:32:18;2.25;;;1.80;;
33830;SDS011;20137;48.834;8.732;2023-05-07T14:34:44;4.13;;;1.77;;
33830;SDS011;20137;48.834;8.732;2023-05-07T14:37:10;4.18;;;1.67;;
33830;SDS011;20137;48.834;8.732;2023-05-07T14:39:37;4.40;;;1.80;;
33830;SDS011;20137;48.834;8.732;2023-05-07T14:42:03;3.45;;;1.60;;
33830;SDS011;20137;48.834;8.732;2023-05-07T14:44:29;4.95;;;1.65;;
33830;SDS011;20137;48.834;8.732;2023-05-07T14:46:56;4.35;;;1.63;;
33830;SDS011;20137;48.834;8.732;2023-05-07T14:49:22;3.60;;;1.70;;
33830;SDS011;20137;48.834;8.732;2023-05-07T14:51:48;4.20;;;1.80;;
33830;SDS011;20137;48.834;8.732;2023-05-07T14:54:14;4.47;;;1.85;;
33830;SDS011;20137;48.834;8.732;2023-05-07T14:56:41;2.75;;;1.90;;
33830;SDS011;20137;48.834;8.732;2023-05-07T14:59:08;3.15;;;1.80;;
33830;SDS011;20137;48.834;8.732;2023-05-07T15:01:34;5.05;;;2.03;;
33830;SDS011;20137;48.834;8.732;2023-05-07T15:04:02;3.78;;;2.10;;
33830;SDS011;20137;48.834;8.732;2023-05-07T15:06:28;3.67;;;2.15;;
33830;SDS011;20137;48.834;8.732;2023-05-07T15:08:54;2.83;;;1.70;;
33830;SDS011;20137;48.834;8.732;2023-05-07T15:11:20;4.63;;;2.00;;
33830;SDS011;20137;48.834;8.732;2023-05-07T15:13:47;2.60;;;1.70;;